sensor_id;sensor_type;location;lat;lon;timestamp;temperature;humidity
66594;DHT22;53450;42.584;23.366;2023-04-21T00:02:09;7.07;76.52
66594;DHT22;53450;42.584;23.366;2023-04-21T00:04:35;7.10;76.17
66594;DHT22;53450;42.584;23.366;2023-04-21T00:07:26;7.27;75.25
66594;DHT22;53450;42.584;23.366;2023-04-21T00:10:17;7.21;75.14
66594;DHT22;53450;42.584;23.366;2023-04-21T00:12:42;7.14;75.47
66594;DHT22;53450;42.584;23.366;2023-04-21T00:15:33;7.12;75.53
66594;DHT22;53450;42.584;23.366;2023-04-21T00:17:58;7.08;75.43
66594;DHT22;53450;42.584;23.366;2023-04-21T00:20:24;6.97;75.47
66594;DHT22;53450;42.584;23.366;2023-04-21T00:22:54;6.87;75.57
66594;DHT22;53450;42.584;23.366;2023-04-21T00:25:20;6.90;75.41
66594;DHT22;53450;42.584;23.366;2023-04-21T00:27:45;6.91;74.91
66594;DHT22;53450;42.584;23.366;2023-04-21T00:30:11;6.94;74.74
66594;DHT22;53450;42.584;23.366;2023-04-21T00:32:37;6.91;75.09
66594;DHT22;53450;42.584;23.366;2023-04-21T00:35:03;6.81;75.60
66594;DHT22;53450;42.584;23.366;2023-04-21T00:37:28;6.76;76.18
66594;DHT22;53450;42.584;23.366;2023-04-21T00:39:55;6.62;76.66
66594;DHT22;53450;42.584;23.366;2023-04-21T00:42:21;6.57;76.82
66594;DHT22;53450;42.584;23.366;2023-04-21T00:44:46;6.60;76.66
66594;DHT22;53450;42.584;23.366;2023-04-21T00:47:12;6.46;76.88
66594;DHT22;53450;42.584;23.366;2023-04-21T00:49:38;6.41;77.20
66594;DHT22;53450;42.584;23.366;2023-04-21T00:52:07;6.39;77.24
66594;DHT22;53450;42.584;23.366;2023-04-21T00:54:36;6.29;77.37
66594;DHT22;53450;42.584;23.366;2023-04-21T00:57:03;6.18;77.45
66594;DHT22;53450;42.584;23.366;2023-04-21T00:59:29;6.15;77.92
66594;DHT22;53450;42.584;23.366;2023-04-21T01:01:55;6.17;78.09
66594;DHT22;53450;42.584;23.366;2023-04-21T01:04:21;6.14;78.07
66594;DHT22;53450;42.584;23.366;2023-04-21T01:06:46;6.10;78.15
66594;DHT22;53450;42.584;23.366;2023-04-21T01:09:37;6.01;78.46
66594;DHT22;53450;42.584;23.366;2023-04-21T01:12:05;5.98;78.42
66594;DHT22;53450;42.584;23.366;2023-04-21T01:14:33;5.98;78.16
66594;DHT22;53450;42.584;23.366;2023-04-21T01:16:59;5.94;78.05
66594;DHT22;53450;42.584;23.366;2023-04-21T01:19:27;5.81;78.34
66594;DHT22;53450;42.584;23.366;2023-04-21T01:21:54;5.64;78.91
66594;DHT22;53450;42.584;23.366;2023-04-21T01:24:23;5.50;79.30
66594;DHT22;53450;42.584;23.366;2023-04-21T01:26:49;5.49;79.50
66594;DHT22;53450;42.584;23.366;2023-04-21T01:29:16;5.42;79.70
66594;DHT22;53450;42.584;23.366;2023-04-21T01:31:46;5.43;80.07
66594;DHT22;53450;42.584;23.366;2023-04-21T01:34:12;5.42;79.71
66594;DHT22;53450;42.584;23.366;2023-04-21T01:36:38;5.43;79.60
66594;DHT22;53450;42.584;23.366;2023-04-21T01:39:03;5.42;79.59
66594;DHT22;53450;42.584;23.366;2023-04-21T01:41:29;5.54;78.73
66594;DHT22;53450;42.584;23.366;2023-04-21T01:43:55;5.69;78.05
66594;DHT22;53450;42.584;23.366;2023-04-21T01:46:22;5.69;78.30
66594;DHT22;53450;42.584;23.366;2023-04-21T01:48:48;5.80;77.95
66594;DHT22;53450;42.584;23.366;2023-04-21T01:51:14;5.86;77.68
66594;DHT22;53450;42.584;23.366;2023-04-21T01:54:05;5.93;76.81
66594;DHT22;53450;42.584;23.366;2023-04-21T01:56:56;5.75;77.54
66594;DHT22;53450;42.584;23.366;2023-04-21T01:59:22;5.67;77.72
66594;DHT22;53450;42.584;23.366;2023-04-21T02:01:48;5.32;78.55
66594;DHT22;53450;42.584;23.366;2023-04-21T02:04:14;5.40;78.94
66594;DHT22;53450;42.584;23.366;2023-04-21T02:06:40;5.38;78.83
66594;DHT22;53450;42.584;23.366;2023-04-21T02:09:06;5.39;78.72
66594;DHT22;53450;42.584;23.366;2023-04-21T02:11:32;5.40;78.56
66594;DHT22;53450;42.584;23.366;2023-04-21T02:13:57;5.38;78.50
66594;DHT22;53450;42.584;23.366;2023-04-21T02:16:23;5.05;78.99
66594;DHT22;53450;42.584;23.366;2023-04-21T02:18:52;5.21;79.00
66594;DHT22;53450;42.584;23.366;2023-04-21T02:21:18;5.35;78.63
66594;DHT22;53450;42.584;23.366;2023-04-21T02:23:47;5.38;78.74
66594;DHT22;53450;42.584;23.366;2023-04-21T02:26:13;5.47;78.26
66594;DHT22;53450;42.584;23.366;2023-04-21T02:28:38;5.80;76.60
66594;DHT22;53450;42.584;23.366;2023-04-21T02:31:04;6.48;73.44
66594;DHT22;53450;42.584;23.366;2023-04-21T02:33:32;6.83;72.44
66594;DHT22;53450;42.584;23.366;2023-04-21T02:35:58;7.01;71.92
66594;DHT22;53450;42.584;23.366;2023-04-21T02:38:23;7.14;71.53
66594;DHT22;53450;42.584;23.366;2023-04-21T02:40:49;7.18;71.54
66594;DHT22;53450;42.584;23.366;2023-04-21T02:43:17;7.21;71.66
66594;DHT22;53450;42.584;23.366;2023-04-21T02:45:43;7.35;71.84
66594;DHT22;53450;42.584;23.366;2023-04-21T02:48:11;7.38;72.02
66594;DHT22;53450;42.584;23.366;2023-04-21T02:50:36;7.54;72.17
66594;DHT22;53450;42.584;23.366;2023-04-21T02:53:02;7.45;72.54
66594;DHT22;53450;42.584;23.366;2023-04-21T02:55:28;7.47;72.51
66594;DHT22;53450;42.584;23.366;2023-04-21T02:57:54;7.54;72.55
66594;DHT22;53450;42.584;23.366;2023-04-21T03:00:22;7.52;72.75
66594;DHT22;53450;42.584;23.366;2023-04-21T03:02:47;7.61;72.70
66594;DHT22;53450;42.584;23.366;2023-04-21T03:05:14;7.69;72.47
66594;DHT22;53450;42.584;23.366;2023-04-21T03:07:44;7.75;72.30
66594;DHT22;53450;42.584;23.366;2023-04-21T03:10:10;7.70;72.51
66594;DHT22;53450;42.584;23.366;2023-04-21T03:12:35;7.79;72.57
66594;DHT22;53450;42.584;23.366;2023-04-21T03:15:02;7.75;72.70
66594;DHT22;53450;42.584;23.366;2023-04-21T03:17:28;7.78;72.65
66594;DHT22;53450;42.584;23.366;2023-04-21T03:19:53;7.83;72.12
66594;DHT22;53450;42.584;23.366;2023-04-21T03:22:19;7.86;72.05
66594;DHT22;53450;42.584;23.366;2023-04-21T03:24:45;7.83;72.13
66594;DHT22;53450;42.584;23.366;2023-04-21T03:27:11;7.86;71.89
66594;DHT22;53450;42.584;23.366;2023-04-21T03:29:36;7.83;71.95
66594;DHT22;53450;42.584;23.366;2023-04-21T03:32:02;7.85;72.19
66594;DHT22;53450;42.584;23.366;2023-04-21T03:34:28;7.82;72.13
66594;DHT22;53450;42.584;23.366;2023-04-21T03:36:56;7.86;72.02
66594;DHT22;53450;42.584;23.366;2023-04-21T03:39:22;7.86;71.99
66594;DHT22;53450;42.584;23.366;2023-04-21T03:41:48;7.73;72.00
66594;DHT22;53450;42.584;23.366;2023-04-21T03:44:14;7.83;71.67
66594;DHT22;53450;42.584;23.366;2023-04-21T03:46:40;7.94;70.70
66594;DHT22;53450;42.584;23.366;2023-04-21T03:49:05;8.01;70.97
66594;DHT22;53450;42.584;23.366;2023-04-21T03:51:31;7.99;70.91
66594;DHT22;53450;42.584;23.366;2023-04-21T03:53:57;7.99;70.78
66594;DHT22;53450;42.584;23.366;2023-04-21T03:56:23;8.03;70.17
66594;DHT22;53450;42.584;23.366;2023-04-21T03:58:49;8.04;69.92
66594;DHT22;53450;42.584;23.366;2023-04-21T04:01:15;8.06;69.86
66594;DHT22;53450;42.584;23.366;2023-04-21T04:03:40;8.16;69.12
66594;DHT22;53450;42.584;23.366;2023-04-21T04:06:31;8.06;69.33
66594;DHT22;53450;42.584;23.366;2023-04-21T04:08:57;8.16;69.34
66594;DHT22;53450;42.584;23.366;2023-04-21T04:11:23;8.24;69.01
66594;DHT22;53450;42.584;23.366;2023-04-21T04:13:48;8.24;69.24
66594;DHT22;53450;42.584;23.366;2023-04-21T04:16:14;8.28;68.69
66594;DHT22;53450;42.584;23.366;2023-04-21T04:18:39;8.27;68.70
66594;DHT22;53450;42.584;23.366;2023-04-21T04:21:05;8.36;68.77
66594;DHT22;53450;42.584;23.366;2023-04-21T04:23:34;8.37;69.59
66594;DHT22;53450;42.584;23.366;2023-04-21T04:25:59;8.36;69.73
66594;DHT22;53450;42.584;23.366;2023-04-21T04:28:26;8.44;70.48
66594;DHT22;53450;42.584;23.366;2023-04-21T04:30:52;8.45;70.78
66594;DHT22;53450;42.584;23.366;2023-04-21T04:33:17;8.52;70.87
66594;DHT22;53450;42.584;23.366;2023-04-21T04:35:43;8.57;70.12
66594;DHT22;53450;42.584;23.366;2023-04-21T04:38:09;8.61;70.02
66594;DHT22;53450;42.584;23.366;2023-04-21T04:40:35;8.75;69.37
66594;DHT22;53450;42.584;23.366;2023-04-21T04:43:01;8.82;68.94
66594;DHT22;53450;42.584;23.366;2023-04-21T04:45:27;8.83;68.26
66594;DHT22;53450;42.584;23.366;2023-04-21T04:47:56;8.95;68.89
66594;DHT22;53450;42.584;23.366;2023-04-21T04:50:22;9.10;68.97
66594;DHT22;53450;42.584;23.366;2023-04-21T04:52:48;9.16;69.22
66594;DHT22;53450;42.584;23.366;2023-04-21T04:55:14;9.16;69.36
66594;DHT22;53450;42.584;23.366;2023-04-21T04:57:40;9.20;69.84
66594;DHT22;53450;42.584;23.366;2023-04-21T05:00:06;9.24;70.14
66594;DHT22;53450;42.584;23.366;2023-04-21T05:02:36;9.19;69.68
66594;DHT22;53450;42.584;23.366;2023-04-21T05:05:04;9.19;69.74
66594;DHT22;53450;42.584;23.366;2023-04-21T05:07:29;9.16;69.64
66594;DHT22;53450;42.584;23.366;2023-04-21T05:09:55;9.19;69.92
66594;DHT22;53450;42.584;23.366;2023-04-21T05:12:21;9.28;69.24
66594;DHT22;53450;42.584;23.366;2023-04-21T05:14:46;9.31;69.16
66594;DHT22;53450;42.584;23.366;2023-04-21T05:17:12;9.43;69.11
66594;DHT22;53450;42.584;23.366;2023-04-21T05:19:37;9.55;68.88
66594;DHT22;53450;42.584;23.366;2023-04-21T05:22:03;9.50;68.83
66594;DHT22;53450;42.584;23.366;2023-04-21T05:24:32;9.48;69.09
66594;DHT22;53450;42.584;23.366;2023-04-21T05:26:57;9.47;68.74
66594;DHT22;53450;42.584;23.366;2023-04-21T05:29:23;9.46;69.29
66594;DHT22;53450;42.584;23.366;2023-04-21T05:31:48;9.54;68.51
66594;DHT22;53450;42.584;23.366;2023-04-21T05:34:14;9.61;68.86
66594;DHT22;53450;42.584;23.366;2023-04-21T05:36:41;9.68;68.90
66594;DHT22;53450;42.584;23.366;2023-04-21T05:39:07;9.64;69.33
66594;DHT22;53450;42.584;23.366;2023-04-21T05:41:32;9.74;68.65
66594;DHT22;53450;42.584;23.366;2023-04-21T05:43:58;9.82;68.28
66594;DHT22;53450;42.584;23.366;2023-04-21T05:46:24;9.85;67.80
66594;DHT22;53450;42.584;23.366;2023-04-21T05:48:49;9.95;67.71
66594;DHT22;53450;42.584;23.366;2023-04-21T05:51:15;10.05;67.24
66594;DHT22;53450;42.584;23.366;2023-04-21T05:53:43;10.03;66.92
66594;DHT22;53450;42.584;23.366;2023-04-21T05:56:10;10.12;66.64
66594;DHT22;53450;42.584;23.366;2023-04-21T05:58:36;10.12;66.92
66594;DHT22;53450;42.584;23.366;2023-04-21T06:01:02;10.22;66.58
66594;DHT22;53450;42.584;23.366;2023-04-21T06:03:31;10.36;67.17
66594;DHT22;53450;42.584;23.366;2023-04-21T06:05:59;10.47;66.61
66594;DHT22;53450;42.584;23.366;2023-04-21T06:08:25;10.54;66.27
66594;DHT22;53450;42.584;23.366;2023-04-21T06:10:50;10.39;67.19
66594;DHT22;53450;42.584;23.366;2023-04-21T06:13:16;10.46;66.99
66594;DHT22;53450;42.584;23.366;2023-04-21T06:15:42;10.39;66.69
66594;DHT22;53450;42.584;23.366;2023-04-21T06:18:07;10.32;67.13
66594;DHT22;53450;42.584;23.366;2023-04-21T06:20:33;10.35;66.89
66594;DHT22;53450;42.584;23.366;2023-04-21T06:22:58;10.47;67.10
66594;DHT22;53450;42.584;23.366;2023-04-21T06:25:24;10.67;66.62
66594;DHT22;53450;42.584;23.366;2023-04-21T06:27:49;10.75;65.73
66594;DHT22;53450;42.584;23.366;2023-04-21T06:30:40;10.90;65.39
66594;DHT22;53450;42.584;23.366;2023-04-21T06:33:31;10.91;64.13
66594;DHT22;53450;42.584;23.366;2023-04-21T06:35:57;10.75;64.83
66594;DHT22;53450;42.584;23.366;2023-04-21T06:38:23;11.04;65.39
66594;DHT22;53450;42.584;23.366;2023-04-21T06:40:49;10.98;64.07
66594;DHT22;53450;42.584;23.366;2023-04-21T06:43:18;11.08;64.09
66594;DHT22;53450;42.584;23.366;2023-04-21T06:45:44;11.16;63.54
66594;DHT22;53450;42.584;23.366;2023-04-21T06:48:10;11.25;63.44
66594;DHT22;53450;42.584;23.366;2023-04-21T06:50:35;11.00;62.85
66594;DHT22;53450;42.584;23.366;2023-04-21T06:53:01;11.12;63.49
66594;DHT22;53450;42.584;23.366;2023-04-21T06:55:27;11.15;63.51
66594;DHT22;53450;42.584;23.366;2023-04-21T06:57:52;11.19;63.96
66594;DHT22;53450;42.584;23.366;2023-04-21T07:00:18;11.33;63.98
66594;DHT22;53450;42.584;23.366;2023-04-21T07:02:44;11.29;63.29
66594;DHT22;53450;42.584;23.366;2023-04-21T07:05:09;11.38;63.95
66594;DHT22;53450;42.584;23.366;2023-04-21T07:07:35;11.40;64.09
66594;DHT22;53450;42.584;23.366;2023-04-21T07:10:00;11.46;63.66
66594;DHT22;53450;42.584;23.366;2023-04-21T07:12:26;11.46;64.68
66594;DHT22;53450;42.584;23.366;2023-04-21T07:14:52;11.47;64.20
66594;DHT22;53450;42.584;23.366;2023-04-21T07:17:17;11.32;63.14
66594;DHT22;53450;42.584;23.366;2023-04-21T07:19:43;11.49;63.37
66594;DHT22;53450;42.584;23.366;2023-04-21T07:22:09;11.70;62.56
66594;DHT22;53450;42.584;23.366;2023-04-21T07:24:59;11.74;63.15
66594;DHT22;53450;42.584;23.366;2023-04-21T07:27:25;11.63;62.98
66594;DHT22;53450;42.584;23.366;2023-04-21T07:29:51;11.56;62.55
66594;DHT22;53450;42.584;23.366;2023-04-21T07:32:16;11.65;62.06
66594;DHT22;53450;42.584;23.366;2023-04-21T07:34:42;11.53;61.79
66594;DHT22;53450;42.584;23.366;2023-04-21T07:37:11;11.67;61.64
66594;DHT22;53450;42.584;23.366;2023-04-21T07:39:36;11.77;61.74
66594;DHT22;53450;42.584;23.366;2023-04-21T07:42:02;11.97;61.08
66594;DHT22;53450;42.584;23.366;2023-04-21T07:44:28;12.24;61.55
66594;DHT22;53450;42.584;23.366;2023-04-21T07:46:53;12.38;61.53
66594;DHT22;53450;42.584;23.366;2023-04-21T07:49:19;12.53;60.31
66594;DHT22;53450;42.584;23.366;2023-04-21T07:51:45;12.71;59.26
66594;DHT22;53450;42.584;23.366;2023-04-21T07:54:11;12.42;59.08
66594;DHT22;53450;42.584;23.366;2023-04-21T07:56:36;12.37;59.03
66594;DHT22;53450;42.584;23.366;2023-04-21T07:59:02;12.32;60.19
66594;DHT22;53450;42.584;23.366;2023-04-21T08:01:27;12.46;59.14
66594;DHT22;53450;42.584;23.366;2023-04-21T08:03:53;12.42;58.37
66594;DHT22;53450;42.584;23.366;2023-04-21T08:06:19;12.27;59.04
66594;DHT22;53450;42.584;23.366;2023-04-21T08:08:44;12.37;58.80
66594;DHT22;53450;42.584;23.366;2023-04-21T08:11:10;12.40;59.58
66594;DHT22;53450;42.584;23.366;2023-04-21T08:13:36;12.46;58.27
66594;DHT22;53450;42.584;23.366;2023-04-21T08:16:02;12.35;56.14
66594;DHT22;53450;42.584;23.366;2023-04-21T08:18:28;12.41;57.35
66594;DHT22;53450;42.584;23.366;2023-04-21T08:20:53;12.35;57.73
66594;DHT22;53450;42.584;23.366;2023-04-21T08:23:21;12.59;57.96
66594;DHT22;53450;42.584;23.366;2023-04-21T08:25:47;13.04;56.61
66594;DHT22;53450;42.584;23.366;2023-04-21T08:28:13;13.23;57.41
66594;DHT22;53450;42.584;23.366;2023-04-21T08:30:40;13.19;56.96
66594;DHT22;53450;42.584;23.366;2023-04-21T08:33:06;12.93;56.56
66594;DHT22;53450;42.584;23.366;2023-04-21T08:35:38;13.02;57.11
66594;DHT22;53450;42.584;23.366;2023-04-21T08:38:05;12.92;57.82
66594;DHT22;53450;42.584;23.366;2023-04-21T08:40:58;12.86;57.83
66594;DHT22;53450;42.584;23.366;2023-04-21T08:43:24;12.73;58.10
66594;DHT22;53450;42.584;23.366;2023-04-21T08:45:51;12.95;58.25
66594;DHT22;53450;42.584;23.366;2023-04-21T08:48:21;12.97;58.03
66594;DHT22;53450;42.584;23.366;2023-04-21T08:50:52;13.34;57.40
66594;DHT22;53450;42.584;23.366;2023-04-21T08:53:18;13.40;56.51
66594;DHT22;53450;42.584;23.366;2023-04-21T08:55:45;13.46;56.51
66594;DHT22;53450;42.584;23.366;2023-04-21T08:58:16;13.50;55.91
66594;DHT22;53450;42.584;23.366;2023-04-21T09:00:41;13.48;55.96
66594;DHT22;53450;42.584;23.366;2023-04-21T09:03:07;13.64;54.68
66594;DHT22;53450;42.584;23.366;2023-04-21T09:05:33;13.83;54.39
66594;DHT22;53450;42.584;23.366;2023-04-21T09:10:48;13.55;54.32
66594;DHT22;53450;42.584;23.366;2023-04-21T09:13:14;13.69;55.62
66594;DHT22;53450;42.584;23.366;2023-04-21T09:15:42;13.81;55.31
66594;DHT22;53450;42.584;23.366;2023-04-21T09:18:16;13.90;53.97
66594;DHT22;53450;42.584;23.366;2023-04-21T09:20:43;13.77;53.39
66594;DHT22;53450;42.584;23.366;2023-04-21T09:23:10;13.79;54.80
66594;DHT22;53450;42.584;23.366;2023-04-21T09:25:40;14.01;55.29
66594;DHT22;53450;42.584;23.366;2023-04-21T09:28:10;14.12;53.51
66594;DHT22;53450;42.584;23.366;2023-04-21T09:30:37;14.05;51.75
66594;DHT22;53450;42.584;23.366;2023-04-21T09:33:03;14.25;52.59
66594;DHT22;53450;42.584;23.366;2023-04-21T09:35:33;14.41;51.24
66594;DHT22;53450;42.584;23.366;2023-04-21T09:38:01;14.66;51.16
66594;DHT22;53450;42.584;23.366;2023-04-21T09:40:31;14.66;49.56
66594;DHT22;53450;42.584;23.366;2023-04-21T09:42:56;14.80;49.24
66594;DHT22;53450;42.584;23.366;2023-04-21T09:45:48;14.97;48.69
66594;DHT22;53450;42.584;23.366;2023-04-21T09:48:42;14.95;48.03
66594;DHT22;53450;42.584;23.366;2023-04-21T09:51:10;14.91;48.78
66594;DHT22;53450;42.584;23.366;2023-04-21T09:53:39;14.91;49.58
66594;DHT22;53450;42.584;23.366;2023-04-21T09:56:10;15.21;48.90
66594;DHT22;53450;42.584;23.366;2023-04-21T09:58:41;15.16;48.24
66594;DHT22;53450;42.584;23.366;2023-04-21T10:01:08;15.24;47.49
66594;DHT22;53450;42.584;23.366;2023-04-21T10:03:37;15.15;47.05
66594;DHT22;53450;42.584;23.366;2023-04-21T10:06:04;15.25;47.70
66594;DHT22;53450;42.584;23.366;2023-04-21T10:08:35;15.16;46.19
66594;DHT22;53450;42.584;23.366;2023-04-21T10:11:01;15.01;48.02
66594;DHT22;53450;42.584;23.366;2023-04-21T10:13:56;15.24;49.00
66594;DHT22;53450;42.584;23.366;2023-04-21T10:16:21;15.34;48.50
66594;DHT22;53450;42.584;23.366;2023-04-21T10:18:47;15.53;48.78
66594;DHT22;53450;42.584;23.366;2023-04-21T10:21:17;15.62;49.66
66594;DHT22;53450;42.584;23.366;2023-04-21T10:23:52;15.62;47.92
66594;DHT22;53450;42.584;23.366;2023-04-21T10:26:26;15.67;45.82
66594;DHT22;53450;42.584;23.366;2023-04-21T10:29:04;16.01;46.91
66594;DHT22;53450;42.584;23.366;2023-04-21T10:31:35;15.70;44.99
66594;DHT22;53450;42.584;23.366;2023-04-21T10:39:02;14.97;47.31
66594;DHT22;53450;42.584;23.366;2023-04-21T10:41:34;14.98;47.72
66594;DHT22;53450;42.584;23.366;2023-04-21T10:44:10;14.78;49.52
66594;DHT22;53450;42.584;23.366;2023-04-21T10:46:38;14.77;51.22
66594;DHT22;53450;42.584;23.366;2023-04-21T10:49:08;14.64;53.33
66594;DHT22;53450;42.584;23.366;2023-04-21T10:54:26;14.23;54.13
66594;DHT22;53450;42.584;23.366;2023-04-21T10:56:57;14.39;53.58
66594;DHT22;53450;42.584;23.366;2023-04-21T10:59:25;14.34;53.52
66594;DHT22;53450;42.584;23.366;2023-04-21T11:01:51;14.41;52.86
66594;DHT22;53450;42.584;23.366;2023-04-21T11:04:19;14.81;52.45
66594;DHT22;53450;42.584;23.366;2023-04-21T11:07:07;14.63;48.47
66594;DHT22;53450;42.584;23.366;2023-04-21T11:09:34;14.41;50.80
66594;DHT22;53450;42.584;23.366;2023-04-21T11:12:02;14.10;51.64
66594;DHT22;53450;42.584;23.366;2023-04-21T11:14:29;14.53;51.29
66594;DHT22;53450;42.584;23.366;2023-04-21T11:16:55;14.78;51.12
66594;DHT22;53450;42.584;23.366;2023-04-21T15:20:46;14.87;48.63
66594;DHT22;53450;42.584;23.366;2023-04-21T15:23:12;14.36;52.30
66594;DHT22;53450;42.584;23.366;2023-04-21T15:25:37;14.39;53.38
66594;DHT22;53450;42.584;23.366;2023-04-21T15:28:03;14.18;53.75
66594;DHT22;53450;42.584;23.366;2023-04-21T15:30:29;14.29;54.31
66594;DHT22;53450;42.584;23.366;2023-04-21T15:32:54;14.36;53.27
66594;DHT22;53450;42.584;23.366;2023-04-21T15:35:20;14.33;53.60
66594;DHT22;53450;42.584;23.366;2023-04-21T15:37:46;14.19;52.40
66594;DHT22;53450;42.584;23.366;2023-04-21T15:40:11;14.25;52.25
66594;DHT22;53450;42.584;23.366;2023-04-21T15:42:37;14.13;51.71
66594;DHT22;53450;42.584;23.366;2023-04-21T15:45:03;14.04;52.09
66594;DHT22;53450;42.584;23.366;2023-04-21T15:47:29;14.05;52.29
66594;DHT22;53450;42.584;23.366;2023-04-21T15:49:54;13.98;51.71
66594;DHT22;53450;42.584;23.366;2023-04-21T15:52:20;13.86;52.27
66594;DHT22;53450;42.584;23.366;2023-04-21T15:54:46;13.81;51.82
66594;DHT22;53450;42.584;23.366;2023-04-21T15:57:12;13.92;52.23
66594;DHT22;53450;42.584;23.366;2023-04-21T15:59:38;13.92;52.10
66594;DHT22;53450;42.584;23.366;2023-04-21T16:02:03;14.09;52.00
66594;DHT22;53450;42.584;23.366;2023-04-21T16:04:32;14.30;51.48
66594;DHT22;53450;42.584;23.366;2023-04-21T16:06:57;14.37;51.58
66594;DHT22;53450;42.584;23.366;2023-04-21T16:09:23;14.26;51.62
66594;DHT22;53450;42.584;23.366;2023-04-21T16:11:48;14.25;52.02
66594;DHT22;53450;42.584;23.366;2023-04-21T16:14:15;14.23;51.66
66594;DHT22;53450;42.584;23.366;2023-04-21T16:16:42;14.12;52.16
66594;DHT22;53450;42.584;23.366;2023-04-21T16:19:07;14.18;52.57
66594;DHT22;53450;42.584;23.366;2023-04-21T16:21:33;14.18;52.12
66594;DHT22;53450;42.584;23.366;2023-04-21T16:24:00;13.98;52.25
66594;DHT22;53450;42.584;23.366;2023-04-21T16:26:25;13.89;52.19
66594;DHT22;53450;42.584;23.366;2023-04-21T16:28:51;13.75;52.39
66594;DHT22;53450;42.584;23.366;2023-04-21T16:31:19;13.51;52.20
66594;DHT22;53450;42.584;23.366;2023-04-21T16:33:45;13.43;52.92
66594;DHT22;53450;42.584;23.366;2023-04-21T16:36:11;13.30;53.73
66594;DHT22;53450;42.584;23.366;2023-04-21T16:38:36;13.33;54.63
66594;DHT22;53450;42.584;23.366;2023-04-21T16:41:02;13.36;55.42
66594;DHT22;53450;42.584;23.366;2023-04-21T16:43:28;13.30;56.58
66594;DHT22;53450;42.584;23.366;2023-04-21T16:45:54;13.26;57.01
66594;DHT22;53450;42.584;23.366;2023-04-21T16:48:19;13.16;57.73
66594;DHT22;53450;42.584;23.366;2023-04-21T16:50:47;12.93;56.99
66594;DHT22;53450;42.584;23.366;2023-04-21T16:53:13;12.90;56.80
66594;DHT22;53450;42.584;23.366;2023-04-21T16:55:38;12.90;56.89
66594;DHT22;53450;42.584;23.366;2023-04-21T16:58:04;12.78;57.00
66594;DHT22;53450;42.584;23.366;2023-04-21T17:00:29;12.69;57.09
66594;DHT22;53450;42.584;23.366;2023-04-21T17:02:56;12.65;57.19
66594;DHT22;53450;42.584;23.366;2023-04-21T17:05:46;12.56;57.93
66594;DHT22;53450;42.584;23.366;2023-04-21T17:08:12;12.41;58.48
66594;DHT22;53450;42.584;23.366;2023-04-21T17:10:38;12.40;58.86
66594;DHT22;53450;42.584;23.366;2023-04-21T17:13:03;12.34;59.00
66594;DHT22;53450;42.584;23.366;2023-04-21T17:15:31;12.32;59.37
66594;DHT22;53450;42.584;23.366;2023-04-21T17:17:57;12.40;59.04
66594;DHT22;53450;42.584;23.366;2023-04-21T17:20:48;12.41;59.54
66594;DHT22;53450;42.584;23.366;2023-04-21T17:23:13;12.25;60.50
66594;DHT22;53450;42.584;23.366;2023-04-21T17:25:39;12.20;60.64
66594;DHT22;53450;42.584;23.366;2023-04-21T17:28:05;12.01;61.36
66594;DHT22;53450;42.584;23.366;2023-04-21T17:30:30;11.82;61.94
66594;DHT22;53450;42.584;23.366;2023-04-21T17:32:56;11.70;62.33
66594;DHT22;53450;42.584;23.366;2023-04-21T17:35:22;11.58;62.30
66594;DHT22;53450;42.584;23.366;2023-04-21T17:37:47;11.52;62.59
66594;DHT22;53450;42.584;23.366;2023-04-21T17:40:14;11.28;64.06
66594;DHT22;53450;42.584;23.366;2023-04-21T17:42:39;11.05;64.42
66594;DHT22;53450;42.584;23.366;2023-04-21T17:45:05;10.93;64.75
66594;DHT22;53450;42.584;23.366;2023-04-21T17:47:31;10.84;65.11
66594;DHT22;53450;42.584;23.366;2023-04-21T17:49:58;10.87;65.19
66594;DHT22;53450;42.584;23.366;2023-04-21T17:52:23;10.94;64.73
66594;DHT22;53450;42.584;23.366;2023-04-21T17:54:49;10.97;64.45
66594;DHT22;53450;42.584;23.366;2023-04-21T17:57:15;11.07;64.23
66594;DHT22;53450;42.584;23.366;2023-04-21T17:59:41;10.93;64.48
66594;DHT22;53450;42.584;23.366;2023-04-21T18:02:06;10.83;64.96
66594;DHT22;53450;42.584;23.366;2023-04-21T18:04:32;10.84;64.86
66594;DHT22;53450;42.584;23.366;2023-04-21T18:06:58;10.91;64.55
66594;DHT22;53450;42.584;23.366;2023-04-21T18:09:24;10.66;64.75
66594;DHT22;53450;42.584;23.366;2023-04-21T18:11:50;10.70;65.22
66594;DHT22;53450;42.584;23.366;2023-04-21T18:14:16;10.75;64.69
66594;DHT22;53450;42.584;23.366;2023-04-21T18:16:41;10.71;64.87
66594;DHT22;53450;42.584;23.366;2023-04-21T18:19:07;10.73;64.79
66594;DHT22;53450;42.584;23.366;2023-04-21T18:21:33;10.70;64.94
66594;DHT22;53450;42.584;23.366;2023-04-21T18:23:59;10.63;65.09
66594;DHT22;53450;42.584;23.366;2023-04-21T18:26:28;10.53;65.22
66594;DHT22;53450;42.584;23.366;2023-04-21T18:28:54;10.47;65.66
66594;DHT22;53450;42.584;23.366;2023-04-21T18:31:23;10.22;65.78
66594;DHT22;53450;42.584;23.366;2023-04-21T18:33:51;10.06;66.29
66594;DHT22;53450;42.584;23.366;2023-04-21T18:36:16;9.89;66.99
66594;DHT22;53450;42.584;23.366;2023-04-21T18:38:42;9.91;67.19
66594;DHT22;53450;42.584;23.366;2023-04-21T18:41:08;9.77;67.40
66594;DHT22;53450;42.584;23.366;2023-04-21T18:43:33;9.74;67.71
66594;DHT22;53450;42.584;23.366;2023-04-21T18:45:59;9.65;67.99
66594;DHT22;53450;42.584;23.366;2023-04-21T18:48:25;9.59;67.94
66594;DHT22;53450;42.584;23.366;2023-04-21T18:50:51;9.37;68.44
66594;DHT22;53450;42.584;23.366;2023-04-21T18:53:16;9.05;69.53
66594;DHT22;53450;42.584;23.366;2023-04-21T18:55:42;8.82;70.52
66594;DHT22;53450;42.584;23.366;2023-04-21T18:58:14;8.73;71.06
66594;DHT22;53450;42.584;23.366;2023-04-21T19:00:40;8.72;71.22
66594;DHT22;53450;42.584;23.366;2023-04-21T19:03:06;8.76;70.92
66594;DHT22;53450;42.584;23.366;2023-04-21T19:05:32;8.89;70.89
66594;DHT22;53450;42.584;23.366;2023-04-21T19:08:00;8.88;70.91
66594;DHT22;53450;42.584;23.366;2023-04-21T19:10:26;8.86;71.08
66594;DHT22;53450;42.584;23.366;2023-04-21T19:12:53;8.82;71.30
66594;DHT22;53450;42.584;23.366;2023-04-21T19:15:20;8.82;71.44
66594;DHT22;53450;42.584;23.366;2023-04-21T19:17:46;8.82;71.38
66594;DHT22;53450;42.584;23.366;2023-04-21T19:20:12;8.86;71.37
66594;DHT22;53450;42.584;23.366;2023-04-21T19:22:37;8.96;70.81
66594;DHT22;53450;42.584;23.366;2023-04-21T19:25:04;9.02;71.03
66594;DHT22;53450;42.584;23.366;2023-04-21T19:27:30;8.95;71.03
66594;DHT22;53450;42.584;23.366;2023-04-21T19:29:56;8.88;71.00
66594;DHT22;53450;42.584;23.366;2023-04-21T19:32:23;8.83;70.74
66594;DHT22;53450;42.584;23.366;2023-04-21T19:34:49;8.82;70.68
66594;DHT22;53450;42.584;23.366;2023-04-21T19:37:14;8.78;70.61